Time;durP1;ratioP1;P1;durP2;ratioP2;P2;SDS_P1;SDS_P2;PMS_P1;PMS_P2;Temp;Humidity;BMP_temperature;BMP_pressure;BME280_temperature;BME280_humidity;BME280_pressure;Samples;Min_cycle;Max_cycle;Signal;HPM_P1;HPM_P2
2022/02/23 00:01:31;;;;;;;21.70;5.88;;;7.00;99.90;;;;;;5033668;28;20417;-82
2022/02/23 00:03:58;;;;;;;20.48;6.13;;;6.90;99.90;;;;;;5033531;28;20425;-83
2022/02/23 00:06:23;;;;;;;17.33;5.68;;;7.00;99.90;;;;;;5015998;28;20385;-83
2022/02/23 00:08:49;;;;;;;21.48;6.00;;;7.00;99.90;;;;;;5016294;28;20491;-82
2022/02/23 00:11:16;;;;;;;18.60;6.30;;;6.90;99.90;;;;;;5034308;28;20436;-82
2022/02/23 00:13:41;;;;;;;21.45;6.10;;;6.90;99.90;;;;;;5016048;28;21029;-83
2022/02/23 00:16:07;;;;;;;17.58;5.88;;;6.90;99.90;;;;;;5033659;28;20405;-83
2022/02/23 00:18:33;;;;;;;20.38;6.97;;;6.90;99.90;;;;;;5032564;28;20399;-85
2022/02/23 00:20:58;;;;;;;24.02;6.82;;;6.80;99.90;;;;;;5033123;28;20493;-82
2022/02/23 00:23:24;;;;;;;22.63;6.63;;;6.80;99.90;;;;;;5015882;28;20413;-83
2022/02/23 00:25:49;;;;;;;26.25;6.65;;;6.90;99.90;;;;;;5034756;28;20457;-82
2022/02/23 00:28:15;;;;;;;25.20;6.88;;;7.10;99.90;;;;;;5034220;28;20385;-83
2022/02/23 00:30:42;;;;;;;12.53;4.50;;;7.00;99.90;;;;;;5015711;28;20413;-83
2022/02/23 00:33:08;;;;;;;12.88;3.90;;;6.70;99.90;;;;;;5014098;28;20413;-83
2022/02/23 00:35:34;;;;;;;12.17;3.73;;;6.00;99.90;;;;;;5031879;28;20436;-84
2022/02/23 00:38:00;;;;;;;11.77;4.03;;;5.70;99.90;;;;;;5016032;28;20380;-85
2022/02/23 00:40:26;;;;;;;17.60;4.72;;;5.50;99.90;;;;;;5032552;28;20392;-82
2022/02/23 00:42:53;;;;;;;22.08;5.15;;;5.50;99.90;;;;;;5035422;28;20739;-83
2022/02/23 00:45:20;;;;;;;22.75;6.05;;;5.40;99.90;;;;;;5017811;28;20449;-82
2022/02/23 00:47:45;;;;;;;22.13;6.72;;;5.30;99.90;;;;;;5035657;28;20432;-83
2022/02/23 00:50:11;;;;;;;25.07;6.37;;;5.30;99.90;;;;;;5016794;28;20891;-82
2022/02/23 00:52:36;;;;;;;24.27;6.50;;;5.20;99.90;;;;;;5019085;28;20544;-82
2022/02/23 00:55:03;;;;;;;29.27;7.45;;;5.20;99.90;;;;;;5015186;28;20378;-82
2022/02/23 00:57:28;;;;;;;28.98;7.55;;;5.10;99.90;;;;;;5017611;28;20408;-82
2022/02/23 00:59:54;;;;;;;27.77;7.23;;;5.10;99.90;;;;;;5034230;28;20377;-83
2022/02/23 01:02:20;;;;;;;29.08;7.97;;;5.20;99.90;;;;;;5016327;28;20405;-83
2022/02/23 01:04:45;;;;;;;32.17;8.52;;;5.20;99.90;;;;;;5017858;28;20433;-82
2022/02/23 01:07:13;;;;;;;29.43;8.20;;;5.10;99.90;;;;;;5019517;28;20381;-83
2022/02/23 01:09:38;;;;;;;28.60;8.45;;;5.30;99.90;;;;;;5018132;28;20392;-82
2022/02/23 01:12:04;;;;;;;29.65;7.93;;;5.30;99.90;;;;;;5037985;28;20374;-83
2022/02/23 01:14:30;;;;;;;30.95;8.00;;;5.40;99.90;;;;;;5036899;28;20469;-82
2022/02/23 01:16:56;;;;;;;26.27;7.63;;;5.40;99.90;;;;;;5036913;28;20382;-82
2022/02/23 01:19:22;;;;;;;27.37;8.70;;;5.40;99.90;;;;;;5036607;28;20404;-82
2022/02/23 01:21:47;;;;;;;26.13;7.20;;;5.30;99.90;;;;;;5036950;28;20440;-83
2022/02/23 01:24:13;;;;;;;26.77;8.20;;;5.40;99.90;;;;;;5036340;28;20380;-83
2022/02/23 01:26:39;;;;;;;28.48;7.93;;;5.40;99.90;;;;;;5036512;28;20401;-82
2022/02/23 01:29:05;;;;;;;31.48;8.98;;;5.50;99.90;;;;;;5037970;28;20440;-83
2022/02/23 01:31:31;;;;;;;30.03;9.00;;;5.60;99.90;;;;;;5037291;28;21035;-83
2022/02/23 01:33:56;;;;;;;26.27;8.35;;;5.60;99.90;;;;;;5018504;28;20429;-81
2022/02/23 01:36:22;;;;;;;27.67;8.27;;;5.70;99.90;;;;;;5037507;28;20394;-82
2022/02/23 01:38:48;;;;;;;29.88;8.20;;;5.70;99.90;;;;;;5017965;28;20385;-82
2022/02/23 01:41:17;;;;;;;28.63;8.07;;;5.70;99.90;;;;;;5036982;28;20416;-82
2022/02/23 01:43:44;;;;;;;32.95;7.80;;;5.60;99.90;;;;;;5021055;28;20435;-82
2022/02/23 01:46:10;;;;;;;32.13;8.75;;;5.60;99.90;;;;;;5039268;28;20847;-82
2022/02/23 01:48:36;;;;;;;28.00;8.38;;;5.60;99.90;;;;;;5038895;28;20428;-83
2022/02/23 01:51:03;;;;;;;27.00;8.07;;;5.40;99.90;;;;;;5021220;28;20410;-82
2022/02/23 01:53:28;;;;;;;28.10;7.25;;;5.50;99.90;;;;;;5038869;28;20374;-82
2022/02/23 01:55:54;;;;;;;29.50;8.13;;;5.50;99.90;;;;;;5038669;28;20948;-82
2022/02/23 01:58:20;;;;;;;29.00;8.20;;;5.60;99.90;;;;;;5038805;28;20377;-82
2022/02/23 02:00:45;;;;;;;30.53;8.50;;;5.70;99.90;;;;;;5039416;28;20401;-83
2022/02/23 02:03:12;;;;;;;26.30;7.57;;;5.90;99.90;;;;;;5037791;28;20528;-82
2022/02/23 02:05:37;;;;;;;31.13;7.55;;;5.80;99.90;;;;;;5021061;28;20381;-82
2022/02/23 02:08:03;;;;;;;26.63;8.00;;;5.90;99.90;;;;;;5018582;28;20397;-83
2022/02/23 02:10:29;;;;;;;26.43;7.77;;;5.90;99.90;;;;;;5036886;28;20460;-82
2022/02/23 02:12:55;;;;;;;30.53;8.03;;;5.90;99.90;;;;;;5037679;28;20376;-83
2022/02/23 02:15:20;;;;;;;27.30;7.03;;;5.80;99.90;;;;;;5037808;28;20396;-83
2022/02/23 02:17:46;;;;;;;27.27;7.27;;;5.90;99.90;;;;;;5038071;28;20377;-82
2022/02/23 02:20:12;;;;;;;24.13;7.35;;;5.70;99.90;;;;;;5039115;28;20919;-82
2022/02/23 02:22:38;;;;;;;32.85;7.72;;;5.70;99.90;;;;;;5036652;28;21223;-82
2022/02/23 02:25:04;;;;;;;28.30;7.82;;;5.50;99.90;;;;;;5020597;28;20385;-82
2022/02/23 02:27:30;;;;;;;27.48;7.53;;;5.60;99.90;;;;;;5039197;28;20491;-81
2022/02/23 02:29:56;;;;;;;28.70;7.17;;;5.50;99.90;;;;;;5021284;28;20409;-83
2022/02/23 02:32:22;;;;;;;26.37;7.87;;;5.50;99.90;;;;;;5019667;28;20901;-82
2022/02/23 02:34:48;;;;;;;22.10;6.88;;;5.40;99.90;;;;;;5038108;28;20899;-82
2022/02/23 02:37:15;;;;;;;25.63;7.43;;;5.40;99.90;;;;;;5039394;28;20374;-82
2022/02/23 02:39:41;;;;;;;21.73;7.13;;;5.30;99.90;;;;;;5019788;28;20441;-82
2022/02/23 02:42:07;;;;;;;31.75;8.13;;;5.30;99.90;;;;;;5038807;28;20401;-82
2022/02/23 02:44:33;;;;;;;23.90;7.25;;;5.30;99.90;;;;;;5038261;28;20412;-81
2022/02/23 02:47:00;;;;;;;25.67;7.13;;;5.30;99.90;;;;;;5021507;28;20385;-82
2022/02/23 02:49:26;;;;;;;27.08;7.15;;;5.20;99.90;;;;;;5018775;28;20536;-82
2022/02/23 02:51:52;;;;;;;24.98;6.38;;;5.20;99.90;;;;;;5037339;28;20381;-81
2022/02/23 02:54:18;;;;;;;30.13;7.33;;;5.20;99.90;;;;;;5019722;28;20595;-82
2022/02/23 02:56:44;;;;;;;27.25;6.90;;;5.40;99.90;;;;;;5037862;28;20377;-81
2022/02/23 02:59:10;;;;;;;25.50;6.35;;;5.20;99.90;;;;;;5037527;28;20417;-82
2022/02/23 03:01:36;;;;;;;25.35;7.53;;;5.20;99.90;;;;;;5038072;28;20406;-81
2022/02/23 03:04:03;;;;;;;27.20;6.35;;;5.20;99.90;;;;;;5037648;28;20386;-82
2022/02/23 03:06:29;;;;;;;24.52;7.18;;;5.40;99.90;;;;;;5018073;28;20377;-82
2022/02/23 03:08:56;;;;;;;21.50;6.60;;;5.30;99.90;;;;;;5038450;28;20490;-82
2022/02/23 03:11:22;;;;;;;27.02;7.47;;;5.40;99.90;;;;;;5037629;28;20373;-82
2022/02/23 03:13:48;;;;;;;22.43;6.50;;;5.50;99.90;;;;;;5036459;28;20382;-82
2022/02/23 03:16:16;;;;;;;23.63;7.03;;;5.70;99.90;;;;;;5019564;28;20384;-83
2022/02/23 03:18:42;;;;;;;27.95;6.95;;;5.70;99.90;;;;;;5032257;28;20408;-83
2022/02/23 03:21:08;;;;;;;28.43;7.67;;;5.80;99.90;;;;;;5032804;28;20469;-83
2022/02/23 03:23:36;;;;;;;26.88;7.65;;;5.70;99.90;;;;;;5035625;28;20774;-81
2022/02/23 03:26:02;;;;;;;25.10;6.50;;;5.70;99.90;;;;;;5018678;28;20612;-82
2022/02/23 03:28:29;;;;;;;27.95;7.65;;;5.60;99.90;;;;;;5015941;28;20439;-85
2022/02/23 03:30:55;;;;;;;29.85;7.72;;;5.70;99.90;;;;;;5037837;28;20407;-82
2022/02/23 03:33:20;;;;;;;22.45;6.05;;;5.70;99.90;;;;;;5034782;28;20385;-83
2022/02/23 03:35:47;;;;;;;24.20;5.80;;;5.60;99.90;;;;;;5032973;28;20386;-82
2022/02/23 03:38:13;;;;;;;13.93;3.92;;;5.50;99.90;;;;;;5014196;28;20389;-82
2022/02/23 03:40:40;;;;;;;12.10;3.73;;;5.30;99.90;;;;;;5014190;28;20817;-86
2022/02/23 03:43:07;;;;;;;14.35;3.97;;;5.10;99.90;;;;;;5014334;28;20748;-83
2022/02/23 03:45:33;;;;;;;13.07;4.03;;;5.00;99.90;;;;;;5015454;28;20392;-82
2022/02/23 03:48:00;;;;;;;17.05;4.72;;;4.80;99.90;;;;;;5034223;28;20855;-83
2022/02/23 03:50:26;;;;;;;14.95;4.25;;;4.80;99.90;;;;;;5017380;28;20448;-82
2022/02/23 03:52:51;;;;;;;18.90;4.50;;;4.80;99.90;;;;;;5036907;28;20385;-82
2022/02/23 03:55:17;;;;;;;13.48;4.05;;;4.70;99.90;;;;;;5018404;28;20385;-82
2022/02/23 03:57:44;;;;;;;18.50;4.90;;;4.70;99.90;;;;;;5036344;28;20401;-82
2022/02/23 04:00:13;;;;;;;22.80;5.40;;;4.60;99.90;;;;;;5037903;28;20389;-81
2022/02/23 04:02:39;;;;;;;21.17;5.03;;;4.50;99.90;;;;;;5037104;28;20406;-81
2022/02/23 04:05:06;;;;;;;21.00;5.75;;;4.40;99.90;;;;;;5036669;28;20446;-81
2022/02/23 04:07:32;;;;;;;23.30;5.25;;;4.30;99.90;;;;;;5018663;28;20389;-82
2022/02/23 04:09:58;;;;;;;21.08;5.32;;;4.30;99.90;;;;;;5035092;28;20499;-82
2022/02/23 04:12:24;;;;;;;25.73;6.95;;;4.20;99.90;;;;;;5035493;28;20409;-82
2022/02/23 04:14:50;;;;;;;26.80;6.20;;;4.20;99.90;;;;;;5036480;28;20492;-82
2022/02/23 04:17:16;;;;;;;24.48;6.20;;;4.20;99.90;;;;;;5019814;28;20891;-82
2022/02/23 04:19:42;;;;;;;26.40;6.57;;;4.30;99.90;;;;;;5020167;28;20405;-81
2022/02/23 04:22:08;;;;;;;24.55;6.78;;;4.40;99.90;;;;;;5020634;28;20401;-82
2022/02/23 04:24:33;;;;;;;29.05;7.00;;;4.40;99.90;;;;;;5020452;28;20441;-82
2022/02/23 04:27:00;;;;;;;32.67;8.30;;;4.50;99.90;;;;;;5019805;28;20382;-82
2022/02/23 04:29:29;;;;;;;35.38;9.38;;;4.40;99.90;;;;;;5038713;28;20381;-82
2022/02/23 04:31:55;;;;;;;43.38;9.82;;;4.50;99.90;;;;;;5029641;28;20756;-83
2022/02/23 04:34:21;;;;;;;33.10;9.63;;;4.40;99.90;;;;;;5031463;28;20923;-82
2022/02/23 04:36:47;;;;;;;39.50;9.85;;;4.40;99.90;;;;;;5013581;28;20461;-82
2022/02/23 04:39:14;;;;;;;39.08;9.60;;;4.50;99.90;;;;;;5016376;28;20396;-81
2022/02/23 04:41:40;;;;;;;38.03;10.17;;;4.60;99.90;;;;;;5018329;28;20501;-82
2022/02/23 04:44:06;;;;;;;38.67;9.87;;;4.60;99.90;;;;;;5036865;28;20382;-83
2022/02/23 04:46:33;;;;;;;38.33;9.35;;;4.60;99.90;;;;;;5036685;28;20378;-82
2022/02/23 04:48:59;;;;;;;35.70;8.67;;;4.50;99.90;;;;;;5019878;28;20389;-82
2022/02/23 04:51:25;;;;;;;39.83;9.93;;;4.60;99.90;;;;;;5037092;28;20448;-81
2022/02/23 04:53:52;;;;;;;28.75;8.32;;;4.50;99.90;;;;;;5019046;28;20405;-82
2022/02/23 04:56:18;;;;;;;36.58;9.57;;;4.40;99.90;;;;;;5037744;28;20392;-82
2022/02/23 04:58:44;;;;;;;43.45;10.60;;;4.50;99.90;;;;;;5019898;28;20421;-82
2022/02/23 05:01:10;;;;;;;34.17;9.50;;;4.50;99.90;;;;;;5038306;28;20407;-82
2022/02/23 05:03:36;;;;;;;36.22;9.27;;;4.50;99.90;;;;;;5038815;28;20426;-81
2022/02/23 05:06:02;;;;;;;39.40;9.80;;;4.50;99.90;;;;;;5037927;28;20807;-82
2022/02/23 05:08:28;;;;;;;32.90;9.90;;;4.50;99.90;;;;;;5038659;28;20389;-83
2022/02/23 05:10:57;;;;;;;37.65;10.80;;;4.50;99.90;;;;;;5038551;28;20481;-81
2022/02/23 05:13:25;;;;;;;30.27;10.55;;;4.50;99.90;;;;;;5021116;28;20392;-82
2022/02/23 05:15:53;;;;;;;36.23;10.07;;;4.50;99.90;;;;;;5038771;28;20431;-81
2022/02/23 05:18:18;;;;;;;36.47;10.00;;;4.40;99.90;;;;;;5020697;28;20854;-82
2022/02/23 05:20:44;;;;;;;26.92;8.05;;;4.40;99.90;;;;;;5037904;28;20389;-82
2022/02/23 05:23:10;;;;;;;37.13;9.15;;;4.40;99.90;;;;;;5038182;28;20382;-82
2022/02/23 05:25:36;;;;;;;33.93;8.73;;;4.40;99.90;;;;;;5021609;28;20416;-82
2022/02/23 05:28:02;;;;;;;36.57;9.40;;;4.30;99.90;;;;;;5039036;28;20454;-82
2022/02/23 05:30:30;;;;;;;33.40;8.57;;;4.30;99.90;;;;;;5005531;28;20390;-82
2022/02/23 05:32:56;;;;;;;32.88;8.52;;;4.30;99.90;;;;;;5021479;28;20425;-82
2022/02/23 05:35:21;;;;;;;37.20;8.55;;;4.30;99.90;;;;;;5022382;28;20858;-82
2022/02/23 05:37:47;;;;;;;33.75;8.75;;;4.30;99.90;;;;;;5039577;28;20400;-81
2022/02/23 05:40:12;;;;;;;32.53;8.37;;;4.30;99.90;;;;;;5040086;28;20381;-82
2022/02/23 05:42:38;;;;;;;32.30;9.17;;;4.30;99.90;;;;;;5040328;28;20405;-82
2022/02/23 05:45:04;;;;;;;36.35;9.13;;;4.30;99.90;;;;;;5022902;28;20381;-82
2022/02/23 05:47:30;;;;;;;34.03;9.30;;;4.20;99.90;;;;;;5023473;28;20386;-81
2022/02/23 05:49:56;;;;;;;37.47;8.83;;;4.20;99.90;;;;;;5022394;28;20500;-82
2022/02/23 05:52:21;;;;;;;29.53;8.77;;;4.20;99.90;;;;;;5023688;28;20402;-81
2022/02/23 05:54:48;;;;;;;34.17;8.93;;;4.30;99.90;;;;;;5042207;28;20721;-83
2022/02/23 05:57:14;;;;;;;32.50;7.88;;;4.30;99.90;;;;;;5040446;28;20392;-81
2022/02/23 05:59:40;;;;;;;29.65;8.45;;;4.40;99.90;;;;;;5024826;28;20394;-81
2022/02/23 06:02:05;;;;;;;29.33;7.90;;;4.40;99.90;;;;;;5039749;28;21112;-82
2022/02/23 06:04:34;;;;;;;31.27;8.17;;;4.30;99.90;;;;;;5037709;28;20374;-82
2022/02/23 06:07:00;;;;;;;26.85;8.25;;;4.30;99.90;;;;;;5037497;28;20489;-81
2022/02/23 06:09:25;;;;;;;27.08;8.05;;;4.40;99.90;;;;;;5036909;28;20863;-82
2022/02/23 06:11:51;;;;;;;33.45;8.18;;;4.50;99.90;;;;;;5035231;28;20407;-82
2022/02/23 06:14:17;;;;;;;28.88;8.27;;;4.40;99.90;;;;;;5035781;28;20417;-81
2022/02/23 06:16:43;;;;;;;23.70;7.90;;;4.40;99.90;;;;;;5025857;28;20426;-81
2022/02/23 06:19:08;;;;;;;29.15;8.88;;;4.50;99.90;;;;;;5058505;28;20401;-82
2022/02/23 06:21:34;;;;;;;29.80;8.43;;;4.50;99.90;;;;;;5047167;28;20492;-82
2022/02/23 06:24:00;;;;;;;29.50;8.47;;;4.50;99.90;;;;;;5037434;28;20373;-82
2022/02/23 06:26:27;;;;;;;26.63;7.47;;;4.50;99.90;;;;;;5032217;28;20447;-82
2022/02/23 06:28:56;;;;;;;31.73;8.38;;;4.50;99.90;;;;;;5024287;28;20840;-82
2022/02/23 06:31:22;;;;;;;32.15;8.32;;;4.50;99.90;;;;;;5054583;28;20410;-82
2022/02/23 06:33:49;;;;;;;30.42;8.20;;;4.50;99.90;;;;;;5046392;28;20393;-81
2022/02/23 06:36:16;;;;;;;28.60;8.23;;;4.50;99.90;;;;;;5037628;28;20381;-82
2022/02/23 06:38:43;;;;;;;31.88;8.52;;;4.60;99.90;;;;;;5022143;28;20408;-81
2022/02/23 06:41:13;;;;;;;31.45;7.97;;;4.60;99.90;;;;;;5038698;28;20409;-83
2022/02/23 06:43:43;;;;;;;27.08;8.10;;;4.60;99.90;;;;;;5040814;28;20373;-81
2022/02/23 06:46:10;;;;;;;31.27;8.85;;;4.50;99.90;;;;;;5038768;28;20404;-83
2022/02/23 06:48:36;;;;;;;32.90;8.40;;;4.60;99.90;;;;;;5037964;28;20369;-81
2022/02/23 06:51:03;;;;;;;27.02;7.40;;;4.50;99.90;;;;;;5019603;28;20388;-82
2022/02/23 06:53:29;;;;;;;32.75;8.45;;;4.60;99.90;;;;;;5034860;28;20420;-82
2022/02/23 06:55:55;;;;;;;28.50;7.22;;;4.80;99.90;;;;;;5019504;28;20381;-81
2022/02/23 06:58:21;;;;;;;34.47;7.97;;;4.90;99.90;;;;;;5019444;28;20424;-82
2022/02/23 07:00:46;;;;;;;29.08;8.00;;;4.90;99.90;;;;;;5035830;28;20408;-82
2022/02/23 07:03:12;;;;;;;28.05;7.55;;;5.00;99.90;;;;;;5018641;28;20465;-81
2022/02/23 07:05:38;;;;;;;24.37;7.20;;;5.00;99.90;;;;;;5021052;28;20394;-81
2022/02/23 07:08:08;;;;;;;30.67;8.57;;;5.10;99.90;;;;;;5022178;28;20488;-81
2022/02/23 07:10:34;;;;;;;28.35;7.53;;;5.20;99.90;;;;;;5022355;28;20394;-82
2022/02/23 07:13:04;;;;;;;27.08;7.70;;;5.10;99.90;;;;;;5021417;28;20417;-81
2022/02/23 07:15:31;;;;;;;24.87;7.90;;;5.30;99.90;;;;;;5039738;28;20421;-83
2022/02/23 07:17:57;;;;;;;25.55;7.10;;;5.30;99.90;;;;;;5022050;28;20381;-82
2022/02/23 07:20:23;;;;;;;31.05;7.93;;;5.30;99.90;;;;;;5019973;28;20420;-82
2022/02/23 07:22:50;;;;;;;34.53;8.07;;;5.30;99.90;;;;;;5036532;28;20405;-83
2022/02/23 07:25:16;;;;;;;29.47;7.77;;;5.40;99.90;;;;;;5037612;28;20846;-82
2022/02/23 07:27:42;;;;;;;28.00;7.30;;;5.50;99.90;;;;;;5021255;28;20389;-82
2022/02/23 07:30:13;;;;;;;25.07;7.53;;;5.60;99.90;;;;;;5039107;28;20373;-83
2022/02/23 07:32:40;;;;;;;25.35;7.30;;;5.80;99.90;;;;;;5005302;28;21067;-82
2022/02/23 07:35:11;;;;;;;24.35;7.53;;;6.00;99.90;;;;;;5020717;28;20393;-82
2022/02/23 07:37:38;;;;;;;29.38;7.97;;;6.10;99.90;;;;;;5037965;28;20424;-83
2022/02/23 07:40:10;;;;;;;22.55;6.78;;;6.20;99.90;;;;;;5018703;28;20401;-82
2022/02/23 07:42:36;;;;;;;28.80;7.07;;;6.20;99.90;;;;;;5018353;28;21087;-83
2022/02/23 07:45:03;;;;;;;23.87;6.90;;;6.20;99.90;;;;;;5020064;28;20386;-83
2022/02/23 07:47:28;;;;;;;27.17;6.22;;;6.30;99.90;;;;;;5019659;28;20425;-82
2022/02/23 07:49:54;;;;;;;28.53;7.83;;;6.50;99.90;;;;;;5036155;28;20377;-82
2022/02/23 07:52:21;;;;;;;22.90;6.53;;;6.60;99.90;;;;;;5019292;28;20389;-83
2022/02/23 07:54:47;;;;;;;22.10;7.07;;;6.70;99.90;;;;;;5020564;28;20388;-82
2022/02/23 07:57:13;;;;;;;24.85;7.13;;;6.80;99.90;;;;;;5019775;28;20453;-83
2022/02/23 07:59:38;;;;;;;25.00;6.55;;;6.70;99.90;;;;;;5037167;28;20384;-82
2022/02/23 08:02:04;;;;;;;24.23;6.80;;;6.90;99.90;;;;;;5038390;28;20485;-82
2022/02/23 08:04:30;;;;;;;27.50;6.73;;;6.90;99.90;;;;;;5037821;28;20709;-83
2022/02/23 08:06:58;;;;;;;22.10;6.27;;;6.90;99.90;;;;;;5037705;28;20410;-82
2022/02/23 08:09:23;;;;;;;19.80;5.57;;;7.00;99.90;;;;;;5018457;28;20376;-83
2022/02/23 08:11:50;;;;;;;21.88;6.78;;;7.20;99.90;;;;;;5014533;28;20391;-83
2022/02/23 08:14:15;;;;;;;25.50;6.63;;;7.20;99.90;;;;;;5030562;28;20381;-83
2022/02/23 08:19:31;;;;;;;24.38;6.45;;;7.20;99.90;;;;;;5053686;28;20403;-82
2022/02/23 08:21:58;;;;;;;21.10;5.97;;;7.20;99.90;;;;;;5033744;28;20766;-83
2022/02/23 08:24:26;;;;;;;26.05;7.05;;;7.20;99.90;;;;;;5046560;28;20402;-82
2022/02/23 08:26:56;;;;;;;17.65;5.72;;;7.30;99.90;;;;;;5042717;28;20405;-83
2022/02/23 08:29:23;;;;;;;22.25;6.95;;;7.40;99.90;;;;;;5045103;28;20391;-83
2022/02/23 08:31:49;;;;;;;18.88;6.70;;;7.40;99.90;;;;;;5049162;28;20703;-83
2022/02/23 08:34:16;;;;;;;19.30;5.87;;;7.40;99.90;;;;;;5039797;28;20461;-83
2022/02/23 08:36:41;;;;;;;19.23;6.07;;;7.30;99.90;;;;;;5054547;28;20403;-83
2022/02/23 08:39:08;;;;;;;21.17;5.90;;;7.30;99.90;;;;;;5056583;28;20407;-83
2022/02/23 08:41:34;;;;;;;21.33;5.88;;;7.50;99.90;;;;;;5039326;28;21230;-83
2022/02/23 08:44:00;;;;;;;23.17;6.83;;;7.40;99.90;;;;;;5034879;28;20461;-82
2022/02/23 08:46:26;;;;;;;20.10;5.53;;;7.60;99.90;;;;;;5027274;28;20383;-84
2022/02/23 08:48:52;;;;;;;17.83;5.82;;;7.70;99.90;;;;;;5048736;28;20373;-82
2022/02/23 08:51:18;;;;;;;19.00;6.17;;;7.80;99.90;;;;;;5039943;28;20391;-82
2022/02/23 08:53:44;;;;;;;23.55;6.32;;;8.10;99.90;;;;;;5037868;28;20455;-82
2022/02/23 08:56:12;;;;;;;19.35;5.45;;;8.30;99.90;;;;;;5037262;28;20381;-83
2022/02/23 08:58:38;;;;;;;21.20;5.87;;;8.20;99.90;;;;;;5036472;28;20447;-82
2022/02/23 09:01:04;;;;;;;22.03;6.20;;;8.20;99.90;;;;;;5038382;28;20722;-83
2022/02/23 09:03:29;;;;;;;20.77;5.97;;;8.20;99.90;;;;;;5041206;28;20872;-83
2022/02/23 09:05:57;;;;;;;21.60;5.75;;;8.40;99.90;;;;;;5038795;28;20395;-83
2022/02/23 09:08:22;;;;;;;21.88;6.10;;;8.50;99.90;;;;;;5056089;28;20434;-83
2022/02/23 09:10:50;;;;;;;19.17;6.05;;;8.40;99.90;;;;;;5057091;28;20372;-81
2022/02/23 09:13:15;;;;;;;17.27;5.68;;;8.40;99.90;;;;;;5038828;28;20383;-82
2022/02/23 09:15:41;;;;;;;20.67;5.82;;;8.40;99.90;;;;;;5057963;28;20498;-82
2022/02/23 09:18:08;;;;;;;19.97;5.73;;;8.50;99.90;;;;;;5040112;28;20395;-82
2022/02/23 09:20:33;;;;;;;21.07;6.03;;;8.80;99.90;;;;;;5036946;28;20416;-82
2022/02/23 09:22:59;;;;;;;16.27;5.50;;;9.00;99.90;;;;;;5019403;28;20417;-82
2022/02/23 09:25:25;;;;;;;17.70;5.88;;;9.30;99.90;;;;;;5038165;28;20381;-82
2022/02/23 09:27:51;;;;;;;21.75;6.13;;;9.50;99.90;;;;;;5016034;28;20385;-82
2022/02/23 09:30:17;;;;;;;19.38;5.72;;;9.50;99.90;;;;;;5035686;28;20385;-82
2022/02/23 09:32:43;;;;;;;17.98;4.53;;;9.70;99.90;;;;;;5037216;28;20783;-83
2022/02/23 09:35:10;;;;;;;18.65;5.20;;;9.60;99.90;;;;;;5017826;28;20403;-83
2022/02/23 09:37:36;;;;;;;20.00;5.60;;;9.40;99.90;;;;;;5036213;28;20392;-82
2022/02/23 09:40:04;;;;;;;16.85;5.13;;;9.10;99.90;;;;;;5018453;28;20398;-84
2022/02/23 09:42:31;;;;;;;16.98;5.53;;;9.10;99.90;;;;;;5017896;28;20919;-83
2022/02/23 09:45:02;;;;;;;20.00;5.53;;;9.00;99.90;;;;;;5038493;28;20859;-82
2022/02/23 09:47:32;;;;;;;15.68;5.20;;;8.90;99.90;;;;;;5025448;28;20531;-84
2022/02/23 09:50:06;;;;;;;18.70;5.57;;;8.90;99.90;;;;;;5024100;28;20410;-85
2022/02/23 09:52:32;;;;;;;14.98;5.63;;;8.70;99.90;;;;;;5055945;28;20379;-82
2022/02/23 09:54:59;;;;;;;18.65;5.65;;;8.80;99.90;;;;;;5035448;28;20484;-82
2022/02/23 09:57:26;;;;;;;19.67;5.43;;;8.70;99.90;;;;;;5055666;28;20453;-82
2022/02/23 09:59:52;;;;;;;23.45;5.40;;;8.90;99.90;;;;;;5054960;28;20465;-83
2022/02/23 10:02:20;;;;;;;20.00;5.05;;;9.00;99.90;;;;;;5037734;28;20408;-84
2022/02/23 10:04:48;;;;;;;18.05;5.10;;;9.20;99.90;;;;;;5035986;28;21080;-83
2022/02/23 10:07:13;;;;;;;17.20;5.32;;;9.10;99.90;;;;;;5029400;28;20379;-83
2022/02/23 10:09:42;;;;;;;18.33;5.15;;;9.00;99.90;;;;;;5031622;28;20388;-82
2022/02/23 10:12:15;;;;;;;17.13;5.22;;;8.80;99.90;;;;;;5044954;28;20380;-84
2022/02/23 10:14:49;;;;;;;17.65;5.20;;;8.70;99.90;;;;;;5054322;28;20380;-83
2022/02/23 10:17:15;;;;;;;16.58;5.15;;;8.60;99.90;;;;;;5049273;28;20388;-84
2022/02/23 10:19:49;;;;;;;18.30;5.27;;;8.40;99.90;;;;;;5015830;28;20922;-83
2022/02/23 10:22:22;;;;;;;17.83;5.13;;;8.50;99.90;;;;;;5016680;28;20428;-82
2022/02/23 10:24:48;;;;;;;20.27;5.43;;;8.90;99.90;;;;;;5016370;28;20417;-85
2022/02/23 10:27:15;;;;;;;18.42;5.13;;;9.10;99.90;;;;;;5018208;28;20431;-83
2022/02/23 10:29:51;;;;;;;17.35;5.30;;;9.40;99.90;;;;;;5020688;28;20492;-83
2022/02/23 10:32:17;;;;;;;17.65;5.65;;;9.30;99.90;;;;;;5028858;28;20911;-83
2022/02/23 10:34:48;;;;;;;15.65;5.43;;;9.40;99.90;;;;;;5053261;28;20438;-83
2022/02/23 10:37:19;;;;;;;17.90;5.72;;;9.40;99.90;;;;;;5034495;28;20463;-83
2022/02/23 10:39:46;;;;;;;17.85;5.20;;;9.40;99.90;;;;;;5020803;28;20424;-84
2022/02/23 10:42:15;;;;;;;19.88;5.72;;;9.30;99.90;;;;;;5034828;28;20403;-82
2022/02/23 10:44:46;;;;;;;18.63;5.43;;;9.50;99.90;;;;;;5024595;28;20385;-82
2022/02/23 10:47:37;;;;;;;17.85;4.85;;;9.60;99.90;;;;;;5013852;28;21053;-82
2022/02/23 10:50:20;;;;;;;16.98;5.07;;;9.50;99.90;;;;;;5013772;28;20905;-84
2022/02/23 10:52:57;;;;;;;16.25;5.10;;;9.30;99.90;;;;;;5011939;28;20725;-83
2022/02/23 10:55:25;;;;;;;18.90;5.07;;;9.40;99.90;;;;;;5011672;28;20416;-82
2022/02/23 10:57:56;;;;;;;17.93;4.83;;;9.10;99.90;;;;;;5048193;28;20388;-82
2022/02/23 11:00:31;;;;;;;17.87;4.90;;;9.20;99.90;;;;;;5020364;28;20404;-82
2022/02/23 11:02:57;;;;;;;16.77;4.57;;;9.30;99.90;;;;;;5013039;28;20412;-82
2022/02/23 11:05:24;;;;;;;14.48;4.65;;;9.30;99.90;;;;;;5031653;28;20377;-84
2022/02/23 11:07:57;;;;;;;17.48;5.20;;;9.20;99.90;;;;;;5044917;28;20409;-82
2022/02/23 11:10:23;;;;;;;17.88;5.70;;;;;;;;;;5050114;28;20380;-83
2022/02/23 11:12:50;;;;;;;17.55;4.95;;;;;;;;;;5039195;28;20874;-83
2022/02/23 11:15:19;;;;;;;14.35;4.30;;;;;;;;;;5012621;28;20955;-82
2022/02/23 11:17:46;;;;;;;14.77;5.18;;;;;;;;;;5013140;28;20396;-83
2022/02/23 11:20:17;;;;;;;16.48;4.78;;;10.10;99.90;;;;;;5031026;28;20373;-83
2022/02/23 11:22:44;;;;;;;11.70;4.65;;;10.00;99.90;;;;;;5038580;28;20904;-83
2022/02/23 11:25:10;;;;;;;17.45;4.95;;;10.10;99.90;;;;;;5026307;28;20417;-82
2022/02/23 11:27:38;;;;;;;13.63;4.63;;;10.00;99.90;;;;;;5031475;28;20386;-83
2022/02/23 11:30:07;;;;;;;18.05;5.00;;;;;;;;;;5036661;28;20471;-82
2022/02/23 11:32:39;;;;;;;13.35;4.60;;;;;;;;;;5033799;28;20380;-82
2022/02/23 11:35:05;;;;;;;20.52;5.50;;;;;;;;;;5051231;28;20455;-82
2022/02/23 11:37:33;;;;;;;19.73;4.85;;;;;;;;;;5042846;28;20374;-83
2022/02/23 11:39:59;;;;;;;15.82;4.18;;;;;;;;;;5013841;28;20397;-82
2022/02/23 11:42:25;;;;;;;17.67;5.07;;;;;;;;;;5021846;28;20417;-82
2022/02/23 11:45:05;;;;;;;17.23;4.82;;;;;;;;;;5015192;28;20400;-84
2022/02/23 11:47:31;;;;;;;17.58;4.78;;;;;;;;;;5014249;28;20747;-83
2022/02/23 11:52:45;;;;;;;18.50;5.30;;;;;;;;;;5051358;28;20387;-82
2022/02/23 11:55:19;;;;;;;11.40;4.22;;;;;;;;;;5049168;28;20487;-83
2022/02/23 11:57:56;;;;;;;19.52;4.80;;;;;;;;;;5026964;28;20402;-83
2022/02/23 12:00:26;;;;;;;16.83;4.78;;;;;;;;;;5013740;28;20401;-83
2022/02/23 12:03:03;;;;;;;16.48;4.75;;;;;;;;;;5032965;28;20409;-82
2022/02/23 12:05:34;;;;;;;16.80;4.72;;;;;;;;;;5016277;28;20404;-83
2022/02/23 12:08:00;;;;;;;14.20;4.70;;;;;;;;;;5013496;28;20526;-83
2022/02/23 12:10:27;;;;;;;12.60;4.37;;;;;;;;;;5028368;28;20478;-84
2022/02/23 12:12:54;;;;;;;12.73;4.22;;;;;;;;;;5027541;28;20392;-82
2022/02/23 12:15:33;;;;;;;15.55;4.30;;;;;;;;;;5030567;28;20399;-83
2022/02/23 12:18:11;;;;;;;14.97;4.60;;;;;;;;;;5012612;28;20369;-82
2022/02/23 12:20:43;;;;;;;13.77;4.18;;;;;;;;;;5013420;28;20860;-82
2022/02/23 12:23:29;;;;;;;14.57;4.47;;;;;;;;;;5030630;28;20492;-82
2022/02/23 12:26:04;;;;;;;13.80;4.43;;;;;;;;;;5029021;28;20560;-82
2022/02/23 12:28:34;;;;;;;12.82;4.28;;;;;;;;;;5011922;28;20460;-83
2022/02/23 12:31:02;;;;;;;14.23;4.60;;;;;;;;;;5029461;28;20409;-83
2022/02/23 12:33:30;;;;;;;18.58;5.10;;;;;;;;;;5011145;28;20370;-83
2022/02/23 12:35:57;;;;;;;14.68;4.30;;;;;;;;;;5011584;28;20385;-81
2022/02/23 12:38:32;;;;;;;14.83;4.33;;;;;;;;;;5011837;28;20446;-81
2022/02/23 12:40:59;;;;;;;14.98;4.47;;;;;;;;;;5030411;28;20440;-82
2022/02/23 12:43:25;;;;;;;14.43;4.35;;;;;;;;;;5009092;28;20736;-81
2022/02/23 12:45:53;;;;;;;18.58;5.00;;;;;;;;;;5008676;28;20449;-81
2022/02/23 12:48:23;;;;;;;14.23;4.22;;;;;;;;;;5026599;28;20374;-80
2022/02/23 12:50:55;;;;;;;14.88;5.35;;;;;;;;;;5028833;28;20439;-83
2022/02/23 12:53:30;;;;;;;12.20;4.60;;;;;;;;;;5029885;28;20412;-82
2022/02/23 12:55:55;;;;;;;11.65;4.60;;;;;;;;;;5012270;28;20389;-82
2022/02/23 12:58:32;;;;;;;15.63;4.65;;;;;;;;;;5029686;28;20377;-81
2022/02/23 13:00:58;;;;;;;11.63;4.20;;;;;;;;;;5032092;28;20376;-83
2022/02/23 13:03:24;;;;;;;14.17;4.83;;;;;;;;;;5029598;28;20445;-82